createdAt,value
2018-04-14T00:01:58.430Z,13.97
2018-04-14T00:04:25.864Z,14.13
2018-04-14T00:06:54.067Z,15.20
2018-04-14T00:09:21.516Z,14.90
2018-04-14T00:11:48.959Z,13.40
2018-04-14T00:14:17.167Z,15.33
2018-04-14T00:16:44.716Z,13.80
2018-04-14T00:19:12.144Z,13.87
2018-04-14T00:21:40.365Z,14.07
2018-04-14T00:24:07.812Z,13.60
2018-04-14T00:26:35.261Z,14.33
2018-04-14T00:29:02.717Z,15.27
2018-04-14T00:31:30.140Z,15.23
2018-04-14T00:33:58.356Z,13.40
2018-04-14T00:36:25.804Z,14.97
2018-04-14T00:38:53.247Z,14.50
2018-04-14T00:41:20.688Z,15.07
2018-04-14T00:43:48.896Z,14.70
2018-04-14T00:46:16.348Z,13.57
2018-04-14T00:48:43.801Z,14.67
2018-04-14T00:51:11.224Z,15.07
2018-04-14T00:53:47.344Z,14.03
2018-04-14T00:56:14.781Z,14.90
2018-04-14T00:58:42.220Z,15.43
2018-04-14T01:01:09.677Z,15.10
2018-04-14T01:03:37.116Z,14.57
2018-04-14T01:06:04.653Z,17.03
2018-04-14T01:08:32.074Z,14.40
2018-04-14T01:10:59.520Z,15.63
2018-04-14T01:13:26.980Z,15.33
2018-04-14T01:15:54.433Z,16.93
2018-04-14T01:18:21.864Z,17.07
2018-04-14T01:20:49.316Z,15.97
2018-04-14T01:23:17.648Z,16.37
2018-04-14T01:25:45.096Z,17.50
2018-04-14T01:28:12.536Z,15.97
2018-04-14T01:30:39.964Z,16.13
2018-04-14T01:33:07.415Z,16.37
2018-04-14T01:35:35.613Z,14.50
2018-04-14T01:38:03.053Z,15.17
2018-04-14T01:40:31.252Z,14.37
2018-04-14T01:42:58.704Z,16.00
2018-04-14T01:45:26.143Z,13.77
2018-04-14T01:47:53.581Z,14.47
2018-04-14T01:50:21.800Z,14.77
2018-04-14T01:52:49.257Z,13.60
2018-04-14T01:55:16.947Z,14.10
2018-04-14T01:57:44.376Z,13.23
2018-04-14T02:00:11.829Z,14.40
2018-04-14T02:02:39.274Z,13.97
2018-04-14T02:05:06.713Z,12.77
2018-04-14T02:07:34.920Z,12.27
2018-04-14T02:10:02.436Z,12.87
2018-04-14T02:12:30.648Z,11.30
2018-04-14T02:14:58.085Z,12.07
2018-04-14T02:17:25.524Z,11.47
2018-04-14T02:19:53.716Z,9.97
2018-04-14T02:22:21.160Z,11.33
2018-04-14T02:24:49.372Z,10.30
2018-04-14T02:27:16.827Z,11.43
2018-04-14T02:29:44.253Z,10.90
2018-04-14T02:32:12.473Z,9.77
2018-04-14T02:34:39.912Z,9.67
2018-04-14T02:37:07.345Z,8.83
2018-04-14T02:39:34.845Z,8.27
2018-04-14T02:42:02.293Z,8.00
2018-04-14T02:44:29.738Z,8.47
2018-04-14T02:46:57.171Z,8.03
2018-04-14T02:49:25.368Z,7.27
2018-04-14T02:51:52.812Z,6.77
2018-04-14T02:54:20.241Z,6.83
2018-04-14T02:56:48.437Z,7.00
2018-04-14T02:59:15.873Z,7.40
2018-04-14T03:01:44.073Z,6.67
2018-04-14T03:04:11.519Z,6.37
2018-04-14T03:06:39.702Z,7.17
2018-04-14T03:09:07.342Z,6.03
2018-04-14T03:11:34.730Z,6.50
2018-04-14T03:14:02.144Z,5.80
2018-04-14T03:16:30.421Z,6.17
2018-04-14T03:18:58.638Z,6.20
2018-04-14T03:21:26.041Z,4.80
2018-04-14T03:23:53.480Z,4.70
2018-04-14T03:26:20.905Z,4.40
2018-04-14T03:28:48.580Z,4.87
2018-04-14T03:31:16.052Z,4.93
2018-04-14T03:33:43.444Z,4.90
2018-04-14T03:36:11.710Z,5.10
2018-04-14T03:38:39.885Z,4.93
2018-04-14T03:41:08.090Z,4.70
2018-04-14T03:43:35.528Z,4.80
2018-04-14T03:46:03.729Z,4.80
2018-04-14T03:48:31.221Z,4.80
2018-04-14T03:50:58.663Z,4.80
2018-04-14T03:53:26.112Z,4.50
2018-04-14T03:55:53.580Z,4.00
2018-04-14T03:58:21.004Z,4.17
2018-04-14T04:00:48.453Z,3.97
2018-04-14T04:03:15.892Z,3.80
2018-04-14T04:05:44.088Z,4.27
2018-04-14T04:08:11.527Z,4.23
2018-04-14T04:10:39.721Z,3.40
2018-04-14T04:13:07.156Z,4.50
2018-04-14T04:15:34.593Z,4.43
2018-04-14T04:18:02.028Z,4.67
2018-04-14T04:20:42.924Z,4.27
2018-04-14T04:23:22.210Z,4.50
2018-04-14T04:25:49.632Z,4.63
2018-04-14T04:28:17.840Z,4.73
2018-04-14T04:30:45.268Z,5.10
2018-04-14T04:33:13.469Z,4.67
2018-04-14T04:35:40.946Z,4.80
2018-04-14T04:38:08.387Z,5.17
2018-04-14T04:40:35.808Z,4.77
2018-04-14T04:43:04.012Z,5.13
2018-04-14T04:45:31.432Z,5.50
2018-04-14T04:47:59.631Z,5.67
2018-04-14T04:50:27.053Z,5.80
2018-04-14T04:52:54.580Z,5.20
2018-04-14T04:55:22.221Z,6.50
2018-04-14T04:57:49.785Z,6.17
2018-04-14T05:00:17.200Z,6.23
2018-04-14T05:02:45.408Z,6.60
2018-04-14T05:05:12.849Z,6.40
2018-04-14T05:07:40.271Z,6.33
2018-04-14T05:10:07.698Z,5.50
2018-04-14T05:12:35.135Z,5.57
2018-04-14T05:15:02.579Z,4.17
2018-04-14T05:17:30.001Z,5.53
2018-04-14T05:19:57.435Z,5.47
2018-04-14T05:22:24.874Z,4.77
2018-04-14T05:24:52.317Z,4.80
2018-04-14T05:27:19.741Z,4.03
2018-04-14T05:29:47.936Z,4.60
2018-04-14T05:32:15.379Z,3.97
2018-04-14T05:34:43.559Z,3.47
2018-04-14T05:37:10.993Z,3.60
2018-04-14T05:39:39.184Z,4.03
2018-04-14T05:42:06.645Z,3.70
2018-04-14T05:44:34.838Z,3.60
2018-04-14T05:47:02.252Z,3.33
2018-04-14T05:49:30.453Z,3.80
2018-04-14T05:51:57.881Z,3.80
2018-04-14T05:54:25.509Z,3.77
2018-04-14T05:56:52.942Z,3.07
2018-04-14T05:59:20.360Z,3.63
2018-04-14T06:01:48.579Z,4.10
2018-04-14T06:04:16.012Z,3.43
2018-04-14T06:06:43.448Z,3.60
2018-04-14T06:09:11.711Z,3.03
2018-04-14T06:11:39.097Z,3.80
2018-04-14T06:14:06.537Z,3.80
2018-04-14T06:16:34.797Z,3.30
2018-04-14T06:19:02.238Z,3.23
2018-04-14T06:21:29.680Z,3.50
2018-04-14T06:23:57.111Z,3.53
2018-04-14T06:26:24.551Z,3.70
2018-04-14T06:28:52.763Z,3.50
2018-04-14T06:31:20.211Z,3.93
2018-04-14T06:33:47.700Z,3.73
2018-04-14T06:36:15.342Z,2.43
2018-04-14T06:38:42.764Z,3.13
2018-04-14T06:41:10.200Z,2.70
2018-04-14T06:43:38.409Z,3.27
2018-04-14T06:46:06.005Z,3.37
2018-04-14T06:48:33.440Z,2.90
2018-04-14T06:51:00.881Z,2.80
2018-04-14T06:53:28.324Z,2.77
2018-04-14T06:55:55.811Z,2.40
2018-04-14T06:58:23.970Z,2.97
2018-04-14T07:00:51.392Z,3.03
2018-04-14T07:03:19.602Z,2.30
2018-04-14T07:05:47.048Z,2.90
2018-04-14T07:08:14.470Z,2.83
2018-04-14T07:10:42.686Z,3.00
2018-04-14T07:13:10.131Z,2.77
2018-04-14T07:15:37.572Z,2.60
2018-04-14T07:18:05.770Z,2.63
2018-04-14T07:20:33.208Z,2.77
2018-04-14T07:23:01.419Z,3.13
2018-04-14T07:25:28.862Z,2.77
2018-04-14T07:27:56.307Z,2.70
2018-04-14T07:30:23.729Z,2.70
2018-04-14T07:32:51.182Z,2.70
2018-04-14T07:35:19.380Z,2.50
2018-04-14T07:37:47.581Z,2.30
2018-04-14T07:40:15.021Z,2.20
2018-04-14T07:42:42.448Z,2.23
2018-04-14T07:45:10.697Z,2.00
2018-04-14T07:47:38.146Z,2.03
2018-04-14T07:50:05.594Z,1.90
2018-04-14T07:52:33.026Z,2.00
2018-04-14T07:55:00.456Z,2.20
2018-04-14T07:57:28.667Z,2.13
2018-04-14T07:59:56.126Z,7.50
2018-04-14T08:02:23.544Z,2.70
2018-04-14T08:04:51.760Z,3.17
2018-04-14T08:07:19.187Z,2.27
2018-04-14T08:09:47.419Z,2.07
2018-04-14T08:12:14.873Z,2.10
2018-04-14T08:14:42.298Z,1.90
2018-04-14T08:17:10.082Z,2.00
2018-04-14T08:19:37.519Z,2.20
2018-04-14T08:22:04.951Z,2.40
2018-04-14T08:24:33.160Z,2.20
2018-04-14T08:27:00.616Z,2.60
2018-04-14T08:29:28.061Z,2.80
2018-04-14T08:31:55.502Z,8.47
2018-04-14T08:34:22.954Z,14.10
2018-04-14T08:36:50.388Z,3.90
2018-04-14T08:39:17.823Z,2.77
2018-04-14T08:41:45.289Z,2.97
2018-04-14T08:44:12.734Z,2.70
2018-04-14T08:46:40.187Z,3.47
2018-04-14T08:49:07.638Z,2.50
2018-04-14T08:51:35.085Z,2.67
2018-04-14T08:54:02.590Z,3.07
2018-04-14T08:56:29.984Z,2.90
2018-04-14T08:58:57.442Z,3.23
2018-04-14T09:01:24.931Z,3.33
2018-04-14T09:03:52.355Z,3.40
2018-04-14T09:06:19.799Z,2.63
2018-04-14T09:11:21.303Z,2.60
2018-04-14T09:13:48.742Z,3.30
2018-04-14T09:16:16.181Z,3.27
2018-04-14T09:18:43.624Z,3.33
2018-04-14T09:21:11.823Z,3.23
2018-04-14T09:23:39.277Z,2.43
2018-04-14T09:26:06.705Z,3.20
2018-04-14T09:28:35.018Z,2.67
2018-04-14T09:31:02.451Z,2.33
2018-04-14T09:33:29.896Z,2.20
2018-04-14T09:35:58.114Z,1.80
2018-04-14T09:38:25.546Z,1.80
2018-04-14T09:40:53.034Z,2.03
2018-04-14T09:43:20.728Z,1.97
2018-04-14T09:45:48.921Z,2.23
2018-04-14T09:48:17.122Z,2.27
2018-04-14T09:50:44.582Z,2.03
2018-04-14T09:53:12.020Z,2.30
2018-04-14T09:55:40.234Z,2.20
2018-04-14T09:58:07.670Z,1.60
2018-04-14T10:00:40.833Z,2.20
2018-04-14T10:03:29.987Z,1.73
2018-04-14T10:05:58.197Z,2.30
2018-04-14T10:08:25.643Z,2.30
2018-04-14T10:10:53.098Z,1.97
2018-04-14T10:13:20.518Z,2.00
2018-04-14T10:15:47.953Z,2.00
2018-04-14T10:18:15.392Z,2.40
2018-04-14T10:20:42.846Z,2.50
2018-04-14T10:23:10.281Z,2.63
2018-04-14T10:25:37.825Z,2.27
2018-04-14T10:28:06.025Z,2.13
2018-04-14T10:30:33.480Z,2.30
2018-04-14T10:33:00.912Z,2.60
2018-04-14T10:35:29.117Z,1.93
2018-04-14T10:37:56.589Z,2.20
2018-04-14T10:40:24.046Z,2.30
2018-04-14T10:42:51.705Z,2.07
2018-04-14T10:45:19.131Z,2.37
2018-04-14T10:47:46.561Z,2.30
2018-04-14T10:50:15.007Z,2.20
2018-04-14T10:52:42.498Z,2.17
2018-04-14T10:55:10.697Z,2.13
2018-04-14T10:57:38.157Z,1.98
2018-04-14T11:00:05.592Z,13.13
2018-04-14T11:02:33.801Z,3.85
2018-04-14T11:05:01.246Z,2.10
2018-04-14T11:07:28.681Z,1.80
2018-04-14T11:09:56.900Z,1.80
2018-04-14T11:12:24.317Z,2.00
2018-04-14T11:14:52.533Z,2.47
2018-04-14T11:17:19.976Z,2.30
2018-04-14T11:19:47.426Z,2.20
2018-04-14T11:22:14.850Z,2.50
2018-04-14T11:24:43.044Z,2.78
2018-04-14T11:27:10.490Z,2.10
2018-04-14T11:29:38.692Z,2.03
2018-04-14T11:32:06.148Z,1.98
2018-04-14T11:34:33.572Z,1.60
2018-04-14T11:37:01.796Z,1.42
2018-04-14T11:39:29.220Z,1.70
2018-04-14T11:41:56.667Z,1.25
2018-04-14T11:44:24.373Z,1.60
2018-04-14T11:46:51.805Z,1.23
2018-04-14T11:49:19.231Z,1.10
2018-04-14T11:51:47.459Z,1.00
2018-04-14T11:54:14.885Z,1.20
2018-04-14T11:56:42.325Z,1.20
2018-04-14T11:59:10.513Z,0.80
2018-04-14T12:01:37.964Z,0.90
2018-04-14T12:04:05.393Z,0.90
2018-04-14T12:06:32.832Z,1.33
2018-04-14T12:09:00.485Z,4.73
2018-04-14T12:11:27.914Z,2.73
2018-04-14T12:13:55.344Z,0.80
2018-04-14T12:16:23.549Z,0.93
2018-04-14T12:18:50.985Z,1.17
2018-04-14T12:21:18.428Z,1.00
2018-04-14T12:23:46.631Z,0.90
2018-04-14T12:26:14.269Z,0.83
2018-04-14T12:28:42.466Z,0.80
2018-04-14T12:31:09.898Z,0.90
2018-04-14T12:33:38.121Z,1.40
2018-04-14T12:36:05.557Z,2.80
2018-04-14T12:38:32.988Z,2.90
2018-04-14T12:41:00.439Z,1.20
2018-04-14T12:43:28.651Z,1.50
2018-04-14T12:45:56.096Z,1.47
2018-04-14T12:48:23.517Z,1.40
2018-04-14T12:50:50.961Z,1.70
2018-04-14T12:53:18.388Z,1.47
2018-04-14T12:55:45.830Z,1.93
2018-04-14T12:58:13.282Z,1.60
2018-04-14T13:00:40.736Z,1.47
2018-04-14T13:03:08.153Z,2.10
2018-04-14T13:05:36.364Z,1.70
2018-04-14T13:08:03.792Z,1.10
2018-04-14T13:10:31.996Z,1.00
2018-04-14T13:12:59.440Z,0.90
2018-04-14T13:15:26.881Z,0.90
2018-04-14T13:17:55.081Z,1.10
2018-04-14T13:20:22.518Z,0.97
2018-04-14T13:22:50.740Z,0.90
2018-04-14T13:25:18.187Z,1.00
2018-04-14T13:27:45.634Z,0.80
2018-04-14T13:30:13.081Z,1.00
2018-04-14T13:32:40.521Z,0.80
2018-04-14T13:35:07.979Z,0.80
2018-04-14T13:37:35.629Z,0.80
2018-04-14T13:40:03.018Z,0.77
2018-04-14T13:42:30.490Z,0.83
2018-04-14T13:44:58.253Z,0.80
2018-04-14T13:47:25.691Z,1.53
2018-04-14T13:49:53.120Z,0.97
2018-04-14T13:52:21.325Z,0.80
2018-04-14T13:54:48.770Z,1.10
2018-04-14T13:57:16.958Z,1.20
2018-04-14T13:59:44.393Z,1.10
2018-04-14T14:02:11.830Z,1.20
2018-04-14T14:04:40.024Z,1.30
2018-04-14T14:07:07.466Z,1.53
2018-04-14T14:09:35.656Z,1.10
2018-04-14T14:12:03.097Z,1.10
2018-04-14T14:14:31.293Z,0.90
2018-04-14T14:16:58.720Z,1.00
2018-04-14T14:19:26.932Z,1.23
2018-04-14T14:21:55.371Z,1.30
2018-04-14T14:24:22.781Z,1.40
2018-04-14T14:26:50.213Z,1.50
2018-04-14T14:29:18.095Z,1.37
2018-04-14T14:31:45.545Z,1.20
2018-04-14T14:34:12.975Z,1.60
2018-04-14T14:36:41.193Z,1.10
2018-04-14T14:39:08.621Z,1.37
2018-04-14T14:41:36.075Z,1.40
2018-04-14T14:44:03.496Z,2.03
2018-04-14T14:46:30.936Z,2.80
2018-04-14T14:48:58.381Z,3.20
2018-04-14T14:51:25.805Z,2.23
2018-04-14T14:53:53.255Z,1.70
2018-04-14T14:56:20.699Z,1.20
2018-04-14T14:58:48.912Z,1.70
2018-04-14T15:01:16.348Z,2.13
2018-04-14T15:03:43.776Z,2.63
2018-04-14T15:06:11.991Z,2.40
2018-04-14T15:08:39.422Z,2.70
2018-04-14T15:11:07.629Z,2.20
2018-04-14T15:13:35.061Z,1.90
2018-04-14T15:16:02.500Z,2.83
2018-04-14T15:18:30.717Z,2.47
2018-04-14T15:20:58.140Z,2.90
2018-04-14T15:23:25.598Z,2.70
2018-04-14T15:25:53.795Z,3.30
2018-04-14T15:28:21.226Z,2.30
2018-04-14T15:30:49.450Z,3.60
2018-04-14T15:33:16.884Z,3.10
2018-04-14T15:35:44.318Z,3.50
2018-04-14T15:38:12.536Z,6.40
2018-04-14T15:40:40.189Z,3.80
2018-04-14T15:43:07.620Z,39.80
2018-04-14T15:45:35.052Z,4.43
2018-04-14T15:48:03.265Z,3.67
2018-04-14T15:50:30.711Z,3.90
2018-04-14T15:52:58.140Z,4.10
2018-04-14T15:55:26.349Z,3.80
2018-04-14T15:57:53.810Z,3.97
2018-04-14T16:00:21.256Z,3.63
2018-04-14T16:02:48.689Z,3.77
2018-04-14T16:05:16.913Z,3.43
2018-04-14T16:10:18.395Z,5.30
2018-04-14T16:12:45.836Z,3.80
2018-04-14T16:15:13.276Z,3.03
2018-04-14T16:17:40.717Z,3.30
2018-04-14T16:20:08.137Z,2.60
2018-04-14T16:22:35.574Z,2.77
2018-04-14T16:25:03.020Z,2.53
2018-04-14T16:27:30.459Z,9.30
2018-04-14T16:29:57.885Z,6.47
2018-04-14T16:32:25.394Z,2.40
2018-04-14T16:34:52.841Z,2.93
2018-04-14T16:37:20.308Z,2.80
2018-04-14T16:39:47.750Z,3.10
2018-04-14T16:42:15.195Z,2.90
2018-04-14T16:44:42.630Z,3.13
2018-04-14T16:47:10.075Z,2.63
2018-04-14T16:49:38.304Z,2.37
2018-04-14T16:52:05.843Z,2.70
2018-04-14T16:54:33.266Z,3.00
2018-04-14T16:57:01.482Z,2.50
2018-04-14T16:59:28.910Z,2.80
2018-04-14T17:01:56.501Z,3.33
2018-04-14T17:04:23.932Z,3.07
2018-04-14T17:06:51.381Z,2.50
2018-04-14T17:09:19.581Z,3.20
2018-04-14T17:11:47.028Z,3.27
2018-04-14T17:14:14.448Z,3.40
2018-04-14T17:16:42.889Z,2.87
2018-04-14T17:19:10.321Z,3.27
2018-04-14T17:21:37.745Z,3.47
2018-04-14T17:24:05.965Z,4.57
2018-04-14T17:26:33.388Z,4.10
2018-04-14T17:29:00.827Z,3.60
2018-04-14T17:31:28.260Z,3.77
2018-04-14T17:33:55.695Z,3.70
2018-04-14T17:36:23.137Z,3.60
2018-04-14T17:38:50.608Z,4.37
2018-04-14T17:41:18.063Z,3.40
2018-04-14T17:43:45.495Z,3.50
2018-04-14T17:46:12.948Z,3.20
2018-04-14T17:48:40.544Z,3.50
2018-04-14T17:51:07.977Z,3.10
2018-04-14T17:53:35.395Z,3.90
2018-04-14T17:56:03.835Z,4.00
2018-04-14T17:58:31.270Z,4.03
2018-04-14T18:00:58.702Z,4.03
2018-04-14T18:03:26.914Z,3.90
2018-04-14T18:05:54.373Z,3.83
2018-04-14T18:08:21.823Z,3.93
2018-04-14T18:10:49.289Z,4.10
2018-04-14T18:13:16.729Z,3.80
2018-04-14T18:15:44.171Z,3.60
2018-04-14T18:18:11.717Z,3.60
2018-04-14T18:20:39.923Z,3.40
2018-04-14T18:23:07.341Z,3.87
2018-04-14T18:25:35.553Z,4.40
2018-04-14T18:28:03.008Z,4.00
2018-04-14T18:30:30.428Z,3.93
2018-04-14T18:32:58.655Z,3.83
2018-04-14T18:35:26.116Z,4.07
2018-04-14T18:37:53.576Z,4.17
2018-04-14T18:40:21.008Z,4.00
2018-04-14T18:42:48.441Z,4.17
2018-04-14T18:45:15.949Z,4.70
2018-04-14T18:47:43.696Z,4.73
2018-04-14T18:50:11.217Z,4.97
2018-04-14T18:52:38.596Z,4.63
2018-04-14T18:55:06.028Z,4.27
2018-04-14T18:57:34.231Z,4.60
2018-04-14T19:00:01.733Z,4.67
2018-04-14T19:02:29.224Z,25.03
2018-04-14T19:04:56.627Z,10.93
2018-04-14T19:07:24.055Z,4.60
2018-04-14T19:09:51.563Z,4.67
2018-04-14T19:12:19.014Z,4.37
2018-04-14T19:14:46.465Z,4.73
2018-04-14T19:17:13.906Z,4.20
2018-04-14T19:19:41.665Z,4.97
2018-04-14T19:22:09.090Z,5.90
2018-04-14T19:24:36.614Z,5.27
2018-04-14T19:27:04.049Z,4.53
2018-04-14T19:29:31.580Z,5.07
2018-04-14T19:31:59.258Z,5.00
2018-04-14T19:34:26.703Z,5.17
2018-04-14T19:36:54.198Z,4.73
2018-04-14T19:39:21.646Z,4.90
2018-04-14T19:41:49.232Z,4.77
2018-04-14T19:44:17.450Z,5.50
2018-04-14T19:46:44.881Z,4.97
2018-04-14T19:49:12.325Z,5.73
2018-04-14T19:51:40.521Z,5.27
2018-04-14T19:54:07.971Z,5.40
2018-04-14T19:56:35.404Z,5.50
2018-04-14T19:59:03.592Z,5.17
2018-04-14T20:01:31.197Z,5.63
2018-04-14T20:03:58.623Z,5.07
2018-04-14T20:06:26.058Z,5.37
2018-04-14T20:08:54.265Z,5.00
2018-04-14T20:11:21.812Z,5.53
2018-04-14T20:13:49.236Z,5.17
2018-04-14T20:16:17.464Z,4.93
2018-04-14T20:18:44.910Z,4.93
2018-04-14T20:21:12.376Z,4.93
2018-04-14T20:23:39.818Z,5.43
2018-04-14T20:26:07.260Z,4.57
2018-04-14T20:28:35.503Z,5.20
2018-04-14T20:31:02.943Z,4.83
2018-04-14T20:33:30.674Z,5.00
2018-04-14T20:35:58.093Z,4.67
2018-04-14T20:38:26.347Z,4.67
2018-04-14T20:40:53.987Z,4.30
2018-04-14T20:43:21.428Z,4.50
2018-04-14T20:45:48.842Z,4.50
2018-04-14T20:48:17.051Z,4.57
2018-04-14T20:50:44.552Z,4.67
2018-04-14T20:53:12.000Z,4.30
2018-04-14T20:55:39.441Z,3.90
2018-04-14T20:58:06.889Z,4.07
2018-04-14T21:00:34.353Z,4.30
2018-04-14T21:03:01.793Z,4.43
2018-04-14T21:05:29.221Z,5.63
2018-04-14T21:07:56.644Z,5.17
2018-04-14T21:10:24.086Z,4.67
2018-04-14T21:12:51.744Z,4.53
2018-04-14T21:15:19.189Z,4.80
2018-04-14T21:17:46.646Z,4.40
2018-04-14T21:20:14.317Z,5.03
2018-04-14T21:22:41.751Z,4.97
2018-04-14T21:25:09.193Z,6.30
2018-04-14T21:27:36.637Z,5.30
2018-04-14T21:30:04.842Z,5.70
2018-04-14T21:32:32.303Z,4.80
2018-04-14T21:34:59.724Z,4.80
2018-04-14T21:37:27.930Z,5.87
2018-04-14T21:39:55.398Z,5.67
2018-04-14T21:42:23.035Z,5.50
2018-04-14T21:44:50.480Z,5.20
2018-04-14T21:47:18.673Z,6.33
2018-04-14T21:49:46.180Z,5.50
2018-04-14T21:52:13.616Z,5.57
2018-04-14T21:54:41.057Z,5.83
2018-04-14T21:57:08.538Z,5.87
2018-04-14T21:59:35.980Z,5.60
2018-04-14T22:02:03.425Z,5.73
2018-04-14T22:04:30.873Z,5.30
2018-04-14T22:06:58.305Z,5.10
2018-04-14T22:09:26.508Z,5.10
2018-04-14T22:11:54.037Z,4.80
2018-04-14T22:14:34.075Z,5.90
2018-04-14T22:17:02.289Z,5.90
2018-04-14T22:19:29.738Z,5.57
2018-04-14T22:21:57.929Z,5.97
2018-04-14T22:24:25.391Z,5.60
2018-04-14T22:26:52.853Z,5.17
2018-04-14T22:29:20.300Z,5.20
2018-04-14T22:31:47.734Z,5.53
2018-04-14T22:34:15.187Z,5.23
2018-04-14T22:36:42.650Z,5.87
2018-04-14T22:39:10.872Z,5.10
2018-04-14T22:41:38.374Z,5.93
2018-04-14T22:44:05.829Z,5.90
2018-04-14T22:46:33.259Z,5.80
2018-04-14T22:49:00.728Z,5.67
2018-04-14T22:51:28.948Z,6.07
2018-04-14T22:53:56.416Z,5.07
2018-04-14T22:56:23.856Z,5.37
2018-04-14T22:58:51.296Z,4.97
2018-04-14T23:01:18.735Z,5.60
2018-04-14T23:03:46.938Z,5.60
2018-04-14T23:06:14.370Z,4.80
2018-04-14T23:08:41.820Z,5.03
2018-04-14T23:11:10.029Z,5.47
2018-04-14T23:13:37.501Z,5.50
2018-04-14T23:16:04.944Z,4.83
2018-04-14T23:18:32.382Z,4.93
2018-04-14T23:20:59.824Z,5.20
2018-04-14T23:23:28.021Z,4.90
2018-04-14T23:25:55.464Z,5.70
2018-04-14T23:28:22.908Z,5.10
2018-04-14T23:30:51.107Z,5.37
2018-04-14T23:33:18.549Z,5.90
2018-04-14T23:35:45.992Z,5.13
2018-04-14T23:38:14.207Z,5.47
2018-04-14T23:40:41.656Z,5.83
2018-04-14T23:43:09.259Z,4.93
2018-04-14T23:45:36.689Z,5.30
2018-04-14T23:48:04.117Z,5.70
2018-04-14T23:50:31.617Z,4.90
2018-04-14T23:52:59.048Z,5.07
2018-04-14T23:55:26.489Z,4.73
2018-04-14T23:57:53.930Z,5.20
